sensor_id;sensor_type;location;lat;lon;timestamp;pressure;altitude;pressure_sealevel;temperature;humidity
46111;BME280;31849;55.992;37.252;2023-07-13T00:04:37;98181.34;;;13.23;66.03
46111;BME280;31849;55.992;37.252;2023-07-13T00:09:41;98189.88;;;13.28;65.98
46111;BME280;31849;55.992;37.252;2023-07-13T00:14:44;98180.97;;;13.09;66.38
46111;BME280;31849;55.992;37.252;2023-07-13T00:19:50;98184.19;;;13.17;66.70
46111;BME280;31849;55.992;37.252;2023-07-13T00:24:54;98187.72;;;13.14;66.66
46111;BME280;31849;55.992;37.252;2023-07-13T00:29:58;98180.53;;;13.21;66.75
46111;BME280;31849;55.992;37.252;2023-07-13T00:35:07;98180.63;;;13.18;66.61
46111;BME280;31849;55.992;37.252;2023-07-13T00:40:12;98180.53;;;13.21;66.50
46111;BME280;31849;55.992;37.252;2023-07-13T00:51:00;98167.44;;;13.23;66.84
46111;BME280;31849;55.992;37.252;2023-07-13T00:56:05;98173.38;;;13.28;66.83
46111;BME280;31849;55.992;37.252;2023-07-13T01:01:09;98167.97;;;13.34;66.28
46111;BME280;31849;55.992;37.252;2023-07-13T01:06:16;98162.63;;;13.37;66.46
46111;BME280;31849;55.992;37.252;2023-07-13T01:11:21;98152.78;;;13.45;66.16
46111;BME280;31849;55.992;37.252;2023-07-13T01:16:27;98150.84;;;13.50;66.19
46111;BME280;31849;55.992;37.252;2023-07-13T01:21:33;98157.78;;;13.51;65.98
46111;BME280;31849;55.992;37.252;2023-07-13T01:26:36;98148.19;;;13.52;65.97
46111;BME280;31849;55.992;37.252;2023-07-13T01:31:40;98150.47;;;13.61;65.87
46111;BME280;31849;55.992;37.252;2023-07-13T01:36:45;98146.22;;;13.59;66.05
46111;BME280;31849;55.992;37.252;2023-07-13T01:41:49;98142.97;;;13.52;65.74
46111;BME280;31849;55.992;37.252;2023-07-13T01:46:53;98152.00;;;13.67;65.44
46111;BME280;31849;55.992;37.252;2023-07-13T01:51:58;98138.28;;;13.62;65.58
46111;BME280;31849;55.992;37.252;2023-07-13T01:57:02;98139.66;;;13.72;65.48
46111;BME280;31849;55.992;37.252;2023-07-13T02:02:06;98128.19;;;13.76;65.22
46111;BME280;31849;55.992;37.252;2023-07-13T02:07:12;98124.88;;;13.71;65.32
46111;BME280;31849;55.992;37.252;2023-07-13T02:12:17;98131.00;;;13.70;65.40
46111;BME280;31849;55.992;37.252;2023-07-13T02:17:21;98117.88;;;13.71;65.43
46111;BME280;31849;55.992;37.252;2023-07-13T02:22:26;98122.69;;;13.84;65.64
46111;BME280;31849;55.992;37.252;2023-07-13T02:27:30;98120.84;;;13.86;64.99
46111;BME280;31849;55.992;37.252;2023-07-13T02:32:33;98118.34;;;13.83;65.14
46111;BME280;31849;55.992;37.252;2023-07-13T02:37:38;98113.66;;;13.93;65.12
46111;BME280;31849;55.992;37.252;2023-07-13T02:42:43;98114.44;;;13.95;65.25
46111;BME280;31849;55.992;37.252;2023-07-13T02:47:47;98113.88;;;14.08;65.15
46111;BME280;31849;55.992;37.252;2023-07-13T02:52:52;98114.69;;;14.11;65.12
46111;BME280;31849;55.992;37.252;2023-07-13T02:57:55;98117.97;;;14.16;64.83
46111;BME280;31849;55.992;37.252;2023-07-13T03:02:59;98089.41;;;14.11;64.36
46111;BME280;31849;55.992;37.252;2023-07-13T03:08:05;98104.44;;;14.28;64.33
46111;BME280;31849;55.992;37.252;2023-07-13T03:13:09;98114.78;;;14.31;64.12
46111;BME280;31849;55.992;37.252;2023-07-13T03:18:12;98111.31;;;14.31;64.08
46111;BME280;31849;55.992;37.252;2023-07-13T03:23:18;98111.94;;;14.37;63.63
46111;BME280;31849;55.992;37.252;2023-07-13T03:28:22;98105.34;;;14.27;63.63
46111;BME280;31849;55.992;37.252;2023-07-13T03:33:25;98105.88;;;14.35;63.87
46111;BME280;31849;55.992;37.252;2023-07-13T03:38:31;98120.53;;;14.39;63.87
46111;BME280;31849;55.992;37.252;2023-07-13T03:43:35;98120.44;;;14.42;63.90
46111;BME280;31849;55.992;37.252;2023-07-13T03:48:38;98112.59;;;14.42;63.65
46111;BME280;31849;55.992;37.252;2023-07-13T03:53:47;98124.13;;;14.59;63.32
46111;BME280;31849;55.992;37.252;2023-07-13T03:58:51;98114.44;;;14.63;63.04
46111;BME280;31849;55.992;37.252;2023-07-13T04:03:55;98116.84;;;14.45;64.04
46111;BME280;31849;55.992;37.252;2023-07-13T04:09:04;98124.78;;;14.66;63.42
46111;BME280;31849;55.992;37.252;2023-07-13T04:14:09;98135.78;;;14.74;62.94
46111;BME280;31849;55.992;37.252;2023-07-13T04:19:13;98137.88;;;14.66;63.30
46111;BME280;31849;55.992;37.252;2023-07-13T04:24:18;98135.16;;;14.89;62.82
46111;BME280;31849;55.992;37.252;2023-07-13T04:29:22;98131.06;;;15.04;62.26
46111;BME280;31849;55.992;37.252;2023-07-13T04:34:26;98137.84;;;15.29;62.20
46111;BME280;31849;55.992;37.252;2023-07-13T04:39:31;98119.97;;;15.59;61.36
46111;BME280;31849;55.992;37.252;2023-07-13T04:44:36;98109.53;;;15.78;60.47
46111;BME280;31849;55.992;37.252;2023-07-13T04:49:39;98127.59;;;15.85;60.07
46111;BME280;31849;55.992;37.252;2023-07-13T04:54:44;98121.38;;;15.87;60.08
46111;BME280;31849;55.992;37.252;2023-07-13T04:59:48;98140.38;;;16.11;59.58
46111;BME280;31849;55.992;37.252;2023-07-13T05:04:51;98139.25;;;16.36;59.13
46111;BME280;31849;55.992;37.252;2023-07-13T05:09:57;98143.19;;;16.81;58.24
46111;BME280;31849;55.992;37.252;2023-07-13T05:15:01;98143.41;;;17.13;56.94
46111;BME280;31849;55.992;37.252;2023-07-13T05:20:06;98131.56;;;17.39;56.71
46111;BME280;31849;55.992;37.252;2023-07-13T05:25:11;98130.28;;;17.13;56.85
46111;BME280;31849;55.992;37.252;2023-07-13T05:30:15;98133.28;;;17.23;56.84
46111;BME280;31849;55.992;37.252;2023-07-13T05:35:19;98120.44;;;17.34;56.98
46111;BME280;31849;55.992;37.252;2023-07-13T05:40:24;98128.91;;;17.57;56.63
46111;BME280;31849;55.992;37.252;2023-07-13T05:45:27;98115.97;;;17.86;56.85
46111;BME280;31849;55.992;37.252;2023-07-13T05:50:31;98100.78;;;17.75;56.47
46111;BME280;31849;55.992;37.252;2023-07-13T05:55:41;98106.66;;;18.30;55.17
46111;BME280;31849;55.992;37.252;2023-07-13T06:00:45;98101.72;;;18.23;54.90
46111;BME280;31849;55.992;37.252;2023-07-13T06:05:48;98107.47;;;18.46;54.51
46111;BME280;31849;55.992;37.252;2023-07-13T06:10:58;98098.22;;;18.39;53.25
46111;BME280;31849;55.992;37.252;2023-07-13T06:16:05;98088.97;;;18.32;53.82
46111;BME280;31849;55.992;37.252;2023-07-13T06:21:12;98099.84;;;18.25;52.45
46111;BME280;31849;55.992;37.252;2023-07-13T06:26:20;98096.59;;;18.36;52.74
46111;BME280;31849;55.992;37.252;2023-07-13T06:31:24;98090.03;;;18.29;52.35
46111;BME280;31849;55.992;37.252;2023-07-13T06:36:28;98090.97;;;18.58;51.13
46111;BME280;31849;55.992;37.252;2023-07-13T06:41:33;98089.06;;;18.76;51.15
46111;BME280;31849;55.992;37.252;2023-07-13T06:46:37;98099.31;;;18.67;50.72
46111;BME280;31849;55.992;37.252;2023-07-13T06:51:41;98089.84;;;18.94;49.79
46111;BME280;31849;55.992;37.252;2023-07-13T06:56:46;98079.69;;;19.03;49.83
46111;BME280;31849;55.992;37.252;2023-07-13T07:01:50;98076.59;;;18.96;50.46
46111;BME280;31849;55.992;37.252;2023-07-13T07:06:54;98084.75;;;18.91;50.61
46111;BME280;31849;55.992;37.252;2023-07-13T07:12:02;98086.28;;;18.79;51.11
46111;BME280;31849;55.992;37.252;2023-07-13T07:17:06;98090.41;;;18.84;51.13
46111;BME280;31849;55.992;37.252;2023-07-13T07:22:10;98100.41;;;18.62;52.58
46111;BME280;31849;55.992;37.252;2023-07-13T07:27:15;98100.69;;;18.58;52.67
46111;BME280;31849;55.992;37.252;2023-07-13T07:32:21;98103.22;;;18.59;52.52
46111;BME280;31849;55.992;37.252;2023-07-13T07:37:28;98101.97;;;18.35;52.75
46111;BME280;31849;55.992;37.252;2023-07-13T07:42:36;98104.34;;;18.07;53.20
46111;BME280;31849;55.992;37.252;2023-07-13T07:47:39;98103.50;;;18.23;53.14
46111;BME280;31849;55.992;37.252;2023-07-13T07:52:43;98101.28;;;18.31;52.79
46111;BME280;31849;55.992;37.252;2023-07-13T07:57:48;98107.56;;;18.44;52.88
46111;BME280;31849;55.992;37.252;2023-07-13T08:02:55;98109.53;;;18.25;53.61
46111;BME280;31849;55.992;37.252;2023-07-13T08:08:19;98118.09;;;18.28;53.34
46111;BME280;31849;55.992;37.252;2023-07-13T08:13:24;98115.28;;;18.48;53.38
46111;BME280;31849;55.992;37.252;2023-07-13T08:18:27;98117.34;;;18.26;53.77
46111;BME280;31849;55.992;37.252;2023-07-13T08:23:39;98122.78;;;18.23;54.06
46111;BME280;31849;55.992;37.252;2023-07-13T08:28:58;98118.75;;;18.48;53.75
46111;BME280;31849;55.992;37.252;2023-07-13T08:34:03;98119.34;;;18.69;53.94
46111;BME280;31849;55.992;37.252;2023-07-13T08:39:07;98127.63;;;18.77;53.70
46111;BME280;31849;55.992;37.252;2023-07-13T08:44:19;98114.13;;;19.00;53.21
46111;BME280;31849;55.992;37.252;2023-07-13T08:49:28;98129.47;;;19.07;53.36
46111;BME280;31849;55.992;37.252;2023-07-13T08:54:35;98137.88;;;19.14;53.25
46111;BME280;31849;55.992;37.252;2023-07-13T08:59:56;98144.13;;;18.81;52.16
46111;BME280;31849;55.992;37.252;2023-07-13T09:05:14;98146.00;;;18.63;52.16
46111;BME280;31849;55.992;37.252;2023-07-13T09:10:25;98162.84;;;18.44;52.79
46111;BME280;31849;55.992;37.252;2023-07-13T09:15:36;98147.63;;;18.50;52.72
46111;BME280;31849;55.992;37.252;2023-07-13T09:20:47;98138.06;;;18.49;52.43
46111;BME280;31849;55.992;37.252;2023-07-13T09:25:59;98129.38;;;18.62;53.54
46111;BME280;31849;55.992;37.252;2023-07-13T09:31:09;98130.72;;;18.54;54.34
46111;BME280;31849;55.992;37.252;2023-07-13T09:36:21;98118.69;;;18.18;55.72
46111;BME280;31849;55.992;37.252;2023-07-13T09:41:31;98103.75;;;18.02;56.00
46111;BME280;31849;55.992;37.252;2023-07-13T09:46:43;98120.41;;;17.85;57.86
46111;BME280;31849;55.992;37.252;2023-07-13T09:51:47;98120.44;;;17.52;58.75
46111;BME280;31849;55.992;37.252;2023-07-13T09:56:56;98121.22;;;17.36;59.78
46111;BME280;31849;55.992;37.252;2023-07-13T10:02:02;98126.06;;;17.44;59.85
46111;BME280;31849;55.992;37.252;2023-07-13T10:07:26;98131.56;;;17.22;60.54
46111;BME280;31849;55.992;37.252;2023-07-13T10:12:38;98127.03;;;17.26;61.59
46111;BME280;31849;55.992;37.252;2023-07-13T10:17:43;98134.59;;;17.32;61.20
46111;BME280;31849;55.992;37.252;2023-07-13T10:22:51;98128.72;;;16.92;62.48
46111;BME280;31849;55.992;37.252;2023-07-13T10:28:02;98132.31;;;16.72;62.57
46111;BME280;31849;55.992;37.252;2023-07-13T10:33:11;98133.81;;;16.76;61.74
46111;BME280;31849;55.992;37.252;2023-07-13T10:38:19;98143.72;;;16.70;61.71
46111;BME280;31849;55.992;37.252;2023-07-13T10:43:29;98143.06;;;16.65;61.48
46111;BME280;31849;55.992;37.252;2023-07-13T10:48:42;98147.59;;;16.81;60.95
46111;BME280;31849;55.992;37.252;2023-07-13T10:54:14;98144.47;;;16.92;60.83
46111;BME280;31849;55.992;37.252;2023-07-13T10:59:26;98148.50;;;16.80;61.12
46111;BME280;31849;55.992;37.252;2023-07-13T11:04:42;98145.19;;;16.76;62.05
46111;BME280;31849;55.992;37.252;2023-07-13T11:09:50;98148.94;;;16.90;61.21
46111;BME280;31849;55.992;37.252;2023-07-13T11:15:11;98153.66;;;17.00;61.06
46111;BME280;31849;55.992;37.252;2023-07-13T11:20:31;98166.59;;;16.86;61.13
46111;BME280;31849;55.992;37.252;2023-07-13T11:25:37;98168.44;;;17.03;60.61
46111;BME280;31849;55.992;37.252;2023-07-13T11:30:43;98165.81;;;17.03;60.02
46111;BME280;31849;55.992;37.252;2023-07-13T11:35:53;98170.59;;;17.12;60.91
46111;BME280;31849;55.992;37.252;2023-07-13T11:41:03;98165.25;;;17.14;60.61
46111;BME280;31849;55.992;37.252;2023-07-13T11:46:15;98159.38;;;17.09;60.95
46111;BME280;31849;55.992;37.252;2023-07-13T11:51:24;98168.09;;;16.92;60.88
46111;BME280;31849;55.992;37.252;2023-07-13T11:56:30;98163.28;;;16.82;61.56
46111;BME280;31849;55.992;37.252;2023-07-13T12:01:42;98141.69;;;16.58;62.10
46111;BME280;31849;55.992;37.252;2023-07-13T12:06:54;98154.91;;;16.74;62.46
46111;BME280;31849;55.992;37.252;2023-07-13T12:11:58;98144.97;;;16.81;62.76
46111;BME280;31849;55.992;37.252;2023-07-13T12:17:09;98142.13;;;16.85;62.80
46111;BME280;31849;55.992;37.252;2023-07-13T12:22:19;98142.31;;;16.63;63.68
46111;BME280;31849;55.992;37.252;2023-07-13T12:27:26;98138.78;;;16.64;63.66
46111;BME280;31849;55.992;37.252;2023-07-13T12:32:31;98137.81;;;16.65;64.26
46111;BME280;31849;55.992;37.252;2023-07-13T12:37:36;98138.34;;;16.55;64.97
46111;BME280;31849;55.992;37.252;2023-07-13T12:42:40;98142.75;;;16.54;64.98
46111;BME280;31849;55.992;37.252;2023-07-13T12:47:47;98139.59;;;16.65;65.05
46111;BME280;31849;55.992;37.252;2023-07-13T12:52:54;98130.53;;;16.72;64.75
46111;BME280;31849;55.992;37.252;2023-07-13T12:58:04;98114.72;;;16.55;64.65
46111;BME280;31849;55.992;37.252;2023-07-13T13:03:21;98137.78;;;16.84;64.88
46111;BME280;31849;55.992;37.252;2023-07-13T13:08:30;98147.66;;;16.79;64.93
46111;BME280;31849;55.992;37.252;2023-07-13T13:13:34;98137.81;;;16.65;64.74
46111;BME280;31849;55.992;37.252;2023-07-13T13:18:38;98142.66;;;16.75;64.83
46111;BME280;31849;55.992;37.252;2023-07-13T13:23:43;98135.81;;;16.53;65.45
46111;BME280;31849;55.992;37.252;2023-07-13T13:28:48;98130.56;;;16.53;65.36
46111;BME280;31849;55.992;37.252;2023-07-13T13:33:52;98143.06;;;16.65;65.29
46111;BME280;31849;55.992;37.252;2023-07-13T13:38:58;98134.50;;;16.62;64.90
46111;BME280;31849;55.992;37.252;2023-07-13T13:44:08;98134.47;;;16.44;65.14
46111;BME280;31849;55.992;37.252;2023-07-13T13:49:14;98149.81;;;16.34;65.27
46111;BME280;31849;55.992;37.252;2023-07-13T13:54:22;98135.13;;;16.30;65.54
46111;BME280;31849;55.992;37.252;2023-07-13T13:59:26;98128.31;;;16.07;66.24
46111;BME280;31849;55.992;37.252;2023-07-13T14:04:29;98138.66;;;16.10;65.90
46111;BME280;31849;55.992;37.252;2023-07-13T14:09:34;98146.06;;;16.21;65.77
46111;BME280;31849;55.992;37.252;2023-07-13T14:14:39;98136.69;;;16.15;66.22
46111;BME280;31849;55.992;37.252;2023-07-13T14:19:42;98145.13;;;16.22;66.06
46111;BME280;31849;55.992;37.252;2023-07-13T14:24:47;98135.69;;;16.18;66.17
46111;BME280;31849;55.992;37.252;2023-07-13T14:29:51;98133.13;;;16.16;66.05
46111;BME280;31849;55.992;37.252;2023-07-13T14:34:54;98129.88;;;16.11;66.00
46111;BME280;31849;55.992;37.252;2023-07-13T14:40:01;98123.50;;;16.17;66.28
46111;BME280;31849;55.992;37.252;2023-07-13T14:45:12;98132.50;;;16.11;66.03
46111;BME280;31849;55.992;37.252;2023-07-13T14:50:19;98136.31;;;16.04;66.60
46111;BME280;31849;55.992;37.252;2023-07-13T14:55:24;98134.13;;;15.95;66.92
46111;BME280;31849;55.992;37.252;2023-07-13T15:00:29;98137.41;;;15.81;67.34
46111;BME280;31849;55.992;37.252;2023-07-13T15:05:33;98125.31;;;15.77;67.49
46111;BME280;31849;55.992;37.252;2023-07-13T15:10:38;98122.56;;;15.80;67.68
46111;BME280;31849;55.992;37.252;2023-07-13T15:15:45;98131.22;;;15.82;67.83
46111;BME280;31849;55.992;37.252;2023-07-13T15:20:50;98113.81;;;15.81;67.78
46111;BME280;31849;55.992;37.252;2023-07-13T15:25:55;98118.09;;;15.82;67.92
46111;BME280;31849;55.992;37.252;2023-07-13T15:30:59;98110.16;;;15.83;67.94
46111;BME280;31849;55.992;37.252;2023-07-13T15:36:03;98107.88;;;15.76;67.90
46111;BME280;31849;55.992;37.252;2023-07-13T15:41:19;98114.16;;;15.72;68.43
46111;BME280;31849;55.992;37.252;2023-07-13T15:46:26;98109.78;;;15.72;68.60
46111;BME280;31849;55.992;37.252;2023-07-13T15:51:34;98103.81;;;15.69;69.02
46111;BME280;31849;55.992;37.252;2023-07-13T15:56:39;98104.47;;;15.74;68.76
46111;BME280;31849;55.992;37.252;2023-07-13T16:01:43;98102.78;;;15.73;68.83
46111;BME280;31849;55.992;37.252;2023-07-13T16:06:49;98107.34;;;15.68;68.80
46111;BME280;31849;55.992;37.252;2023-07-13T16:11:54;98105.41;;;15.73;68.83
46111;BME280;31849;55.992;37.252;2023-07-13T16:16:59;98109.13;;;15.67;68.68
46111;BME280;31849;55.992;37.252;2023-07-13T16:22:03;98113.16;;;15.55;68.85
46111;BME280;31849;55.992;37.252;2023-07-13T16:27:10;98114.25;;;15.50;69.25
46111;BME280;31849;55.992;37.252;2023-07-13T16:32:15;98107.56;;;15.44;69.43
46111;BME280;31849;55.992;37.252;2023-07-13T16:37:20;98108.59;;;15.40;69.43
46111;BME280;31849;55.992;37.252;2023-07-13T16:42:26;98107.66;;;15.41;69.39
46111;BME280;31849;55.992;37.252;2023-07-13T16:47:30;98098.25;;;15.37;69.88
46111;BME280;31849;55.992;37.252;2023-07-13T16:52:34;98074.38;;;15.24;69.49
46111;BME280;31849;55.992;37.252;2023-07-13T16:57:39;98091.06;;;15.21;70.44
46111;BME280;31849;55.992;37.252;2023-07-13T17:02:45;98089.38;;;15.20;70.27
46111;BME280;31849;55.992;37.252;2023-07-13T17:07:50;98092.13;;;15.17;70.61
46111;BME280;31849;55.992;37.252;2023-07-13T17:12:56;98082.97;;;15.07;70.85
46111;BME280;31849;55.992;37.252;2023-07-13T17:17:59;98100.09;;;15.14;70.86
46111;BME280;31849;55.992;37.252;2023-07-13T17:23:16;98094.78;;;15.16;70.93
46111;BME280;31849;55.992;37.252;2023-07-13T17:28:22;98092.22;;;15.14;71.01
46111;BME280;31849;55.992;37.252;2023-07-13T17:33:29;98098.97;;;15.20;71.24
46111;BME280;31849;55.992;37.252;2023-07-13T17:38:36;98099.78;;;15.22;71.19
46111;BME280;31849;55.992;37.252;2023-07-13T17:43:44;98100.56;;;15.24;71.21
46111;BME280;31849;55.992;37.252;2023-07-13T17:48:49;98111.72;;;15.27;71.30
46111;BME280;31849;55.992;37.252;2023-07-13T17:53:54;98114.28;;;15.29;71.05
46111;BME280;31849;55.992;37.252;2023-07-13T17:59:01;98123.00;;;15.29;71.29
46111;BME280;31849;55.992;37.252;2023-07-13T18:04:05;98141.22;;;15.33;71.27
46111;BME280;31849;55.992;37.252;2023-07-13T18:09:15;98142.78;;;15.37;71.14
46111;BME280;31849;55.992;37.252;2023-07-13T18:14:21;98131.84;;;15.27;71.42
46111;BME280;31849;55.992;37.252;2023-07-13T18:19:28;98144.94;;;15.27;71.52
46111;BME280;31849;55.992;37.252;2023-07-13T18:24:33;98162.34;;;15.28;71.51
46111;BME280;31849;55.992;37.252;2023-07-13T18:29:38;98148.16;;;15.34;71.63
46111;BME280;31849;55.992;37.252;2023-07-13T18:34:45;98145.72;;;15.29;71.52
46111;BME280;31849;55.992;37.252;2023-07-13T18:39:50;98140.44;;;15.30;71.42
46111;BME280;31849;55.992;37.252;2023-07-13T18:44:56;98136.31;;;15.25;71.30
46111;BME280;31849;55.992;37.252;2023-07-13T18:50:00;98170.28;;;15.26;71.47
46111;BME280;31849;55.992;37.252;2023-07-13T18:55:12;98125.88;;;15.03;71.33
46111;BME280;31849;55.992;37.252;2023-07-13T19:00:18;98149.47;;;15.23;71.48
46111;BME280;31849;55.992;37.252;2023-07-13T19:05:26;98153.06;;;15.21;71.42
46111;BME280;31849;55.992;37.252;2023-07-13T19:10:30;98162.22;;;15.10;71.57
46111;BME280;31849;55.992;37.252;2023-07-13T19:15:36;98163.09;;;15.09;71.53
46111;BME280;31849;55.992;37.252;2023-07-13T19:20:40;98143.34;;;15.02;71.81
46111;BME280;31849;55.992;37.252;2023-07-13T19:25:45;98159.66;;;15.09;71.93
46111;BME280;31849;55.992;37.252;2023-07-13T19:30:50;98156.84;;;15.13;71.37
46111;BME280;31849;55.992;37.252;2023-07-13T19:35:54;98143.09;;;15.08;71.47
46111;BME280;31849;55.992;37.252;2023-07-13T19:40:59;98152.44;;;15.14;71.22
46111;BME280;31849;55.992;37.252;2023-07-13T19:46:04;98141.41;;;15.07;70.93
46111;BME280;31849;55.992;37.252;2023-07-13T19:51:09;98156.31;;;15.05;71.31
46111;BME280;31849;55.992;37.252;2023-07-13T19:56:18;98172.06;;;15.04;71.27
46111;BME280;31849;55.992;37.252;2023-07-13T20:01:24;98169.28;;;15.08;71.38
46111;BME280;31849;55.992;37.252;2023-07-13T20:06:31;98168.53;;;15.05;71.35
46111;BME280;31849;55.992;37.252;2023-07-13T20:11:35;98168.78;;;14.99;71.25
46111;BME280;31849;55.992;37.252;2023-07-13T20:16:40;98170.38;;;15.03;71.21
46111;BME280;31849;55.992;37.252;2023-07-13T20:21:44;98170.50;;;15.00;71.26
46111;BME280;31849;55.992;37.252;2023-07-13T20:26:48;98181.81;;;15.00;71.10
46111;BME280;31849;55.992;37.252;2023-07-13T20:31:53;98190.63;;;14.98;71.46
46111;BME280;31849;55.992;37.252;2023-07-13T20:36:59;98188.16;;;14.94;71.18
46111;BME280;31849;55.992;37.252;2023-07-13T20:42:09;98183.91;;;14.92;71.35
46111;BME280;31849;55.992;37.252;2023-07-13T20:47:16;98170.78;;;14.93;71.50
46111;BME280;31849;55.992;37.252;2023-07-13T20:52:21;98176.91;;;14.92;71.26
46111;BME280;31849;55.992;37.252;2023-07-13T20:57:25;98187.44;;;14.91;71.43
46111;BME280;31849;55.992;37.252;2023-07-13T21:02:31;98194.38;;;14.92;71.39
46111;BME280;31849;55.992;37.252;2023-07-13T21:07:36;98193.44;;;14.93;71.31
46111;BME280;31849;55.992;37.252;2023-07-13T21:12:40;98187.44;;;14.91;71.13
46111;BME280;31849;55.992;37.252;2023-07-13T21:17:46;98178.63;;;14.93;71.30
46111;BME280;31849;55.992;37.252;2023-07-13T21:22:51;98180.44;;;14.91;71.22
46111;BME280;31849;55.992;37.252;2023-07-13T21:27:56;98159.94;;;14.81;71.16
46111;BME280;31849;55.992;37.252;2023-07-13T21:33:02;98182.97;;;14.93;71.42
46111;BME280;31849;55.992;37.252;2023-07-13T21:38:15;98176.00;;;14.93;71.75
46111;BME280;31849;55.992;37.252;2023-07-13T21:43:20;98163.94;;;14.89;71.84
46111;BME280;31849;55.992;37.252;2023-07-13T21:48:25;98166.50;;;14.91;71.57
46111;BME280;31849;55.992;37.252;2023-07-13T21:53:31;98115.34;;;14.62;71.67
46111;BME280;31849;55.992;37.252;2023-07-13T21:58:35;98167.34;;;14.91;71.67
46111;BME280;31849;55.992;37.252;2023-07-13T22:03:40;98168.78;;;14.99;71.69
46111;BME280;31849;55.992;37.252;2023-07-13T22:08:44;98167.22;;;14.94;71.63
46111;BME280;31849;55.992;37.252;2023-07-13T22:13:48;98167.34;;;14.91;71.95
46111;BME280;31849;55.992;37.252;2023-07-13T22:18:54;98158.72;;;14.89;71.59
46111;BME280;31849;55.992;37.252;2023-07-13T22:23:57;98152.66;;;14.87;71.12
46111;BME280;31849;55.992;37.252;2023-07-13T22:29:05;98163.06;;;14.89;71.98
46111;BME280;31849;55.992;37.252;2023-07-13T22:34:15;98151.38;;;14.98;71.45
46111;BME280;31849;55.992;37.252;2023-07-13T22:39:23;98166.78;;;15.05;71.52
46111;BME280;31849;55.992;37.252;2023-07-13T22:44:29;98160.75;;;15.03;71.55
46111;BME280;31849;55.992;37.252;2023-07-13T22:49:34;98162.47;;;15.04;71.60
46111;BME280;31849;55.992;37.252;2023-07-13T22:54:38;98152.97;;;15.02;71.26
46111;BME280;31849;55.992;37.252;2023-07-13T22:59:43;98159.97;;;15.01;71.66
46111;BME280;31849;55.992;37.252;2023-07-13T23:04:48;98166.88;;;15.02;71.40
46111;BME280;31849;55.992;37.252;2023-07-13T23:09:52;98152.38;;;14.95;71.68
46111;BME280;31849;55.992;37.252;2023-07-13T23:15:10;98156.56;;;14.99;71.74
46111;BME280;31849;55.992;37.252;2023-07-13T23:20:23;98162.53;;;15.03;71.50
46111;BME280;31849;55.992;37.252;2023-07-13T23:25:29;98142.03;;;14.92;71.72
46111;BME280;31849;55.992;37.252;2023-07-13T23:30:35;98142.94;;;14.91;71.95
46111;BME280;31849;55.992;37.252;2023-07-13T23:35:41;98151.63;;;14.91;71.86
46111;BME280;31849;55.992;37.252;2023-07-13T23:40:45;98155.13;;;14.92;72.13
46111;BME280;31849;55.992;37.252;2023-07-13T23:45:49;98148.31;;;14.88;71.84
46111;BME280;31849;55.992;37.252;2023-07-13T23:50:55;98147.56;;;14.84;71.79
46111;BME280;31849;55.992;37.252;2023-07-13T23:55:58;98153.19;;;14.75;72.21
